createdAt,value
2022-11-24T00:01:15.654Z,9.41
2022-11-24T00:03:44.380Z,9.20
2022-11-24T00:06:14.029Z,9.40
2022-11-24T00:08:43.854Z,9.46
2022-11-24T00:11:17.001Z,9.56
2022-11-24T00:13:45.032Z,9.54
2022-11-24T00:16:13.835Z,9.52
2022-11-24T00:18:42.514Z,9.55
2022-11-24T00:21:10.392Z,9.53
2022-11-24T00:23:37.761Z,9.50
2022-11-24T00:26:23.415Z,9.56
2022-11-24T00:28:53.741Z,9.57
2022-11-24T00:31:33.020Z,9.53
2022-11-24T00:34:02.653Z,9.60
2022-11-24T00:36:32.119Z,9.64
2022-11-24T00:39:01.787Z,9.68
2022-11-24T00:41:30.071Z,9.64
2022-11-24T00:43:58.370Z,9.58
2022-11-24T00:46:26.415Z,9.59
2022-11-24T00:48:54.286Z,9.54
2022-11-24T00:51:24.148Z,9.40
2022-11-24T00:53:51.612Z,9.46
2022-11-24T00:56:18.730Z,9.47
2022-11-24T00:58:45.879Z,9.44
2022-11-24T01:01:17.138Z,9.43
2022-11-24T01:03:46.818Z,9.48
2022-11-24T01:06:15.295Z,9.53
2022-11-24T01:08:43.421Z,9.49
2022-11-24T01:11:54.551Z,9.48
2022-11-24T01:14:23.588Z,9.60
2022-11-24T01:16:50.989Z,9.61
2022-11-24T01:19:18.318Z,9.61
2022-11-24T01:21:46.133Z,9.67
2022-11-24T01:24:13.963Z,9.65
2022-11-24T01:26:42.198Z,9.70
2022-11-24T01:29:11.938Z,9.56
2022-11-24T01:31:39.606Z,9.62
2022-11-24T01:34:07.239Z,9.69
2022-11-24T01:36:35.729Z,9.68
2022-11-24T01:39:02.916Z,9.63
2022-11-24T01:41:30.212Z,9.48
2022-11-24T01:43:57.943Z,9.56
2022-11-24T01:46:46.361Z,9.38
2022-11-24T01:49:20.181Z,9.30
2022-11-24T01:51:55.644Z,9.12
2022-11-24T01:54:28.078Z,8.72
2022-11-24T01:57:00.526Z,8.67
2022-11-24T01:59:28.374Z,8.46
2022-11-24T02:01:57.114Z,8.46
2022-11-24T02:04:29.710Z,8.42
2022-11-24T02:06:59.863Z,8.35
2022-11-24T02:09:33.842Z,8.35
2022-11-24T02:12:02.645Z,8.33
2022-11-24T02:14:30.303Z,8.42
2022-11-24T02:16:57.772Z,8.39
2022-11-24T02:19:40.388Z,8.61
2022-11-24T02:22:26.802Z,8.45
2022-11-24T02:25:01.933Z,8.53
2022-11-24T02:27:29.417Z,8.47
2022-11-24T02:29:56.558Z,8.54
2022-11-24T02:32:23.893Z,8.64
2022-11-24T02:35:01.194Z,8.55
2022-11-24T02:37:28.276Z,8.68
2022-11-24T02:39:55.552Z,8.60
2022-11-24T02:42:22.964Z,8.64
2022-11-24T02:44:54.966Z,8.56
2022-11-24T02:47:22.197Z,8.46
2022-11-24T02:49:49.318Z,8.40
2022-11-24T02:52:16.727Z,8.33
2022-11-24T02:54:44.363Z,8.39
2022-11-24T02:57:12.068Z,8.43
2022-11-24T02:59:39.134Z,8.51
2022-11-24T03:02:06.577Z,8.32
2022-11-24T03:04:33.997Z,8.12
2022-11-24T03:07:01.435Z,7.97
2022-11-24T03:09:28.773Z,8.09
2022-11-24T03:11:56.647Z,8.06
2022-11-24T03:14:23.739Z,7.92
2022-11-24T03:16:51.040Z,7.78
2022-11-24T03:19:18.231Z,7.89
2022-11-24T03:21:45.551Z,7.82
2022-11-24T03:24:12.684Z,7.81
2022-11-24T03:26:39.944Z,7.63
2022-11-24T03:29:07.757Z,7.56
2022-11-24T03:31:35.284Z,7.55
2022-11-24T03:34:02.647Z,7.70
2022-11-24T03:36:29.790Z,7.73
2022-11-24T03:38:57.219Z,7.62
2022-11-24T03:41:24.614Z,7.66
2022-11-24T03:43:51.985Z,7.81
2022-11-24T03:46:19.403Z,7.91
2022-11-24T03:48:46.604Z,7.91
2022-11-24T03:51:13.676Z,7.88
2022-11-24T03:53:41.080Z,7.94
2022-11-24T03:56:08.247Z,7.62
2022-11-24T03:58:35.568Z,7.73
2022-11-24T04:01:02.735Z,7.61
2022-11-24T04:03:30.110Z,7.76
2022-11-24T04:05:57.274Z,7.62
2022-11-24T04:08:24.758Z,7.78
2022-11-24T04:10:54.181Z,7.83
2022-11-24T04:13:23.302Z,7.69
2022-11-24T04:15:50.524Z,7.54
2022-11-24T04:18:18.829Z,7.37
2022-11-24T04:20:46.340Z,7.52
2022-11-24T04:23:13.704Z,7.54
2022-11-24T04:25:42.592Z,7.45
2022-11-24T04:28:11.473Z,7.42
2022-11-24T04:30:40.401Z,7.64
2022-11-24T04:33:07.936Z,7.54
2022-11-24T04:35:35.885Z,7.53
2022-11-24T04:38:03.495Z,7.72
2022-11-24T04:40:30.660Z,7.87
2022-11-24T04:42:57.724Z,7.79
2022-11-24T04:45:25.302Z,7.53
2022-11-24T04:47:52.527Z,7.59
2022-11-24T04:50:19.791Z,7.46
2022-11-24T04:52:47.116Z,7.40
2022-11-24T04:55:14.389Z,7.53
2022-11-24T04:57:41.626Z,7.53
2022-11-24T05:00:09.436Z,7.24
2022-11-24T05:02:37.499Z,7.32
2022-11-24T05:05:06.173Z,7.35
2022-11-24T05:07:36.578Z,7.30
2022-11-24T05:10:22.261Z,7.28
2022-11-24T05:12:57.447Z,7.21
2022-11-24T05:15:24.827Z,7.27
2022-11-24T05:17:52.687Z,7.02
2022-11-24T05:20:20.060Z,6.95
2022-11-24T05:22:47.584Z,7.05
2022-11-24T05:25:15.643Z,6.97
2022-11-24T05:27:42.826Z,6.81
2022-11-24T05:30:10.653Z,6.99
2022-11-24T05:32:38.767Z,7.20
2022-11-24T05:35:06.968Z,7.23
2022-11-24T05:37:34.058Z,6.87
2022-11-24T05:40:01.143Z,7.00
2022-11-24T05:42:46.231Z,6.85
2022-11-24T05:45:17.361Z,6.88
2022-11-24T05:47:45.771Z,6.95
2022-11-24T05:50:15.306Z,6.87
2022-11-24T05:52:42.701Z,6.90
2022-11-24T05:55:11.296Z,7.18
2022-11-24T05:57:39.123Z,7.06
2022-11-24T06:00:08.995Z,7.06
2022-11-24T06:02:42.544Z,7.22
2022-11-24T06:05:10.069Z,7.28
2022-11-24T06:07:37.957Z,7.22
2022-11-24T06:10:05.810Z,7.39
2022-11-24T06:12:33.275Z,7.60
2022-11-24T06:15:00.770Z,7.39
2022-11-24T06:17:28.410Z,7.37
2022-11-24T06:19:55.806Z,7.41
2022-11-24T06:22:23.238Z,7.31
2022-11-24T06:24:51.287Z,7.43
2022-11-24T06:27:19.449Z,7.39
2022-11-24T06:29:46.709Z,7.24
2022-11-24T06:32:14.116Z,7.36
2022-11-24T06:34:41.657Z,7.61
2022-11-24T06:37:10.002Z,7.76
2022-11-24T06:39:37.579Z,7.92
2022-11-24T06:42:04.736Z,8.15
2022-11-24T06:44:32.172Z,8.15
2022-11-24T06:46:59.961Z,8.19
2022-11-24T06:49:27.350Z,8.25
2022-11-24T06:51:55.309Z,8.26
2022-11-24T06:54:22.737Z,8.32
2022-11-24T06:56:49.945Z,8.24
2022-11-24T06:59:19.348Z,8.30
2022-11-24T07:01:47.350Z,8.28
2022-11-24T07:04:15.444Z,8.31
2022-11-24T07:06:44.124Z,8.27
2022-11-24T07:09:13.110Z,8.20
2022-11-24T07:11:41.043Z,8.19
2022-11-24T07:14:08.811Z,8.14
2022-11-24T07:16:36.683Z,8.09
2022-11-24T07:19:04.026Z,7.97
2022-11-24T07:21:31.413Z,7.82
2022-11-24T07:23:58.891Z,7.79
2022-11-24T07:26:26.941Z,7.81
2022-11-24T07:28:54.535Z,7.80
2022-11-24T07:31:25.428Z,8.00
2022-11-24T07:33:55.122Z,8.10
2022-11-24T07:36:23.704Z,8.25
2022-11-24T07:38:51.104Z,8.32
2022-11-24T07:41:20.237Z,8.26
2022-11-24T07:43:48.506Z,8.33
2022-11-24T07:46:17.866Z,8.30
2022-11-24T07:48:46.218Z,8.34
2022-11-24T07:51:13.556Z,8.42
2022-11-24T07:53:40.758Z,8.48
2022-11-24T07:56:10.068Z,8.53
2022-11-24T07:58:38.302Z,8.39
2022-11-24T08:01:11.629Z,8.33
2022-11-24T08:03:39.343Z,8.37
2022-11-24T08:06:23.569Z,8.48
2022-11-24T08:08:53.633Z,8.44
2022-11-24T08:11:20.802Z,8.56
2022-11-24T08:13:48.285Z,8.48
2022-11-24T08:16:18.089Z,8.42
2022-11-24T08:18:51.252Z,8.41
2022-11-24T08:21:18.583Z,8.59
2022-11-24T08:23:46.145Z,8.76
2022-11-24T08:26:16.452Z,8.82
2022-11-24T08:28:44.585Z,8.86
2022-11-24T08:31:14.867Z,8.96
2022-11-24T08:33:42.972Z,9.00
2022-11-24T08:36:13.427Z,8.98
2022-11-24T08:38:41.441Z,9.15
2022-11-24T08:41:11.501Z,9.34
2022-11-24T08:43:39.007Z,9.37
2022-11-24T08:46:10.215Z,9.47
2022-11-24T08:48:38.206Z,9.44
2022-11-24T08:51:11.360Z,9.62
2022-11-24T08:53:39.304Z,9.77
2022-11-24T08:56:08.052Z,9.57
2022-11-24T08:58:35.656Z,9.50
2022-11-24T09:01:10.523Z,9.61
2022-11-24T09:03:43.393Z,9.61
2022-11-24T09:06:14.311Z,9.48
2022-11-24T09:08:42.292Z,9.74
2022-11-24T09:11:12.405Z,9.58
2022-11-24T09:13:41.233Z,9.57
2022-11-24T09:16:11.780Z,9.80
2022-11-24T09:18:39.954Z,9.69
2022-11-24T09:21:10.640Z,9.67
2022-11-24T09:23:38.303Z,9.74
2022-11-24T09:26:16.880Z,10.03
2022-11-24T09:28:44.787Z,9.77
2022-11-24T09:31:14.323Z,10.16
2022-11-24T09:33:42.189Z,10.15
2022-11-24T09:36:09.987Z,10.35
2022-11-24T09:38:37.624Z,10.21
2022-11-24T09:41:40.446Z,10.01
2022-11-24T09:44:09.532Z,9.95
2022-11-24T09:47:02.502Z,9.83
2022-11-24T09:49:38.419Z,9.92
2022-11-24T09:52:14.361Z,10.16
2022-11-24T09:54:51.817Z,10.36
2022-11-24T09:57:23.890Z,10.47
2022-11-24T09:59:51.990Z,10.26
2022-11-24T10:02:19.761Z,10.03
2022-11-24T10:04:47.480Z,10.00
2022-11-24T10:07:29.684Z,10.10
2022-11-24T10:09:56.946Z,10.07
2022-11-24T10:12:51.968Z,10.20
2022-11-24T10:15:56.544Z,10.24
2022-11-24T10:18:50.456Z,10.16
2022-11-24T10:21:30.341Z,10.16
2022-11-24T10:24:12.919Z,9.96
2022-11-24T10:26:47.341Z,9.86
2022-11-24T10:29:23.978Z,9.83
2022-11-24T10:31:58.099Z,9.88
2022-11-24T10:34:59.266Z,9.58
2022-11-24T10:37:35.617Z,9.89
2022-11-24T10:40:40.953Z,9.95
2022-11-24T10:43:10.765Z,9.94
2022-11-24T10:45:39.745Z,10.06
2022-11-24T10:48:16.783Z,10.10
2022-11-24T10:50:44.419Z,9.91
2022-11-24T10:53:27.177Z,10.15
2022-11-24T10:55:57.454Z,10.06
2022-11-24T10:58:37.602Z,9.99
2022-11-24T11:01:33.329Z,10.07
2022-11-24T11:04:02.102Z,10.08
2022-11-24T11:06:31.634Z,10.11
2022-11-24T11:09:08.339Z,10.13
2022-11-24T11:11:36.940Z,10.11
2022-11-24T11:14:07.222Z,10.05
2022-11-24T11:16:37.356Z,10.03
2022-11-24T11:19:48.015Z,9.98
2022-11-24T11:22:22.090Z,10.17
2022-11-24T11:25:18.847Z,10.08
2022-11-24T11:27:46.283Z,10.31
2022-11-24T11:36:14.907Z,10.67
2022-11-24T11:38:44.420Z,10.70
2022-11-24T11:41:20.908Z,10.65
2022-11-24T11:43:53.632Z,10.80
2022-11-24T11:46:21.496Z,10.71
2022-11-24T11:48:48.957Z,10.54
2022-11-24T11:51:53.943Z,10.73
2022-11-24T11:54:43.176Z,10.64
2022-11-24T11:57:43.677Z,10.59
2022-11-24T12:00:20.643Z,10.49
2022-11-24T12:03:12.316Z,10.33
2022-11-24T12:06:06.358Z,10.45
2022-11-24T12:09:18.119Z,10.42
2022-11-24T12:11:43.581Z,10.34
2022-11-24T12:14:23.176Z,10.46
2022-11-24T12:17:18.269Z,10.36
2022-11-24T12:19:54.445Z,10.41
2022-11-24T12:22:50.054Z,10.19
2022-11-24T12:25:23.647Z,10.33
2022-11-24T12:28:14.422Z,10.33
2022-11-24T12:30:51.154Z,10.22
2022-11-24T12:33:34.773Z,10.19
2022-11-24T12:36:27.218Z,10.21
2022-11-24T12:39:05.952Z,10.22
2022-11-24T12:41:55.979Z,10.06
2022-11-24T12:44:42.642Z,10.06
2022-11-24T12:47:22.121Z,10.16
2022-11-24T12:49:55.852Z,10.16
2022-11-24T12:52:28.875Z,10.21
2022-11-24T12:54:57.324Z,10.18
2022-11-24T12:57:34.291Z,10.24
2022-11-24T13:00:16.402Z,10.26
2022-11-24T13:03:26.029Z,10.25
2022-11-24T13:06:01.737Z,10.00
2022-11-24T13:08:30.020Z,10.16
2022-11-24T13:11:23.072Z,10.13
2022-11-24T13:14:18.028Z,10.11
2022-11-24T13:17:28.185Z,10.08
2022-11-24T13:19:48.542Z,10.11
2022-11-24T13:22:23.419Z,10.05
2022-11-24T13:25:14.922Z,9.99
2022-11-24T13:27:45.528Z,9.98
2022-11-24T13:30:34.997Z,9.88
2022-11-24T13:33:27.307Z,9.77
2022-11-24T13:36:04.470Z,9.81
2022-11-24T13:38:51.548Z,9.70
2022-11-24T13:41:35.352Z,9.73
2022-11-24T13:44:15.036Z,9.72
2022-11-24T13:47:05.326Z,9.68
2022-11-24T13:49:46.677Z,9.64
2022-11-24T13:52:37.019Z,9.59
2022-11-24T13:55:23.648Z,9.42
2022-11-24T13:57:59.823Z,9.58
2022-11-24T14:00:32.252Z,9.42
2022-11-24T14:03:16.051Z,9.49
2022-11-24T14:05:48.497Z,9.50
2022-11-24T14:08:30.102Z,9.43
2022-11-24T14:10:59.297Z,9.37
2022-11-24T14:13:28.701Z,9.47
2022-11-24T14:16:02.596Z,9.47
2022-11-24T14:18:31.590Z,9.43
2022-11-24T14:21:01.393Z,9.39
2022-11-24T14:23:28.727Z,9.33
2022-11-24T14:25:56.118Z,9.33
2022-11-24T14:28:26.917Z,9.31
2022-11-24T14:31:23.074Z,9.19
2022-11-24T14:33:51.496Z,9.15
2022-11-24T14:36:19.245Z,9.15
2022-11-24T14:38:47.543Z,9.08
2022-11-24T14:41:23.537Z,9.10
2022-11-24T14:43:50.858Z,9.09
2022-11-24T14:46:20.062Z,9.06
2022-11-24T14:48:53.549Z,9.04
2022-11-24T14:51:27.157Z,9.01
2022-11-24T14:53:58.701Z,8.97
2022-11-24T14:56:30.666Z,8.95
2022-11-24T14:58:59.330Z,8.96
2022-11-24T15:01:34.861Z,8.88
2022-11-24T15:04:26.454Z,8.85
2022-11-24T15:07:36.997Z,8.81
2022-11-24T15:10:07.294Z,8.82
2022-11-24T15:12:43.502Z,8.77
2022-11-24T15:15:14.263Z,8.74
2022-11-24T15:17:53.894Z,8.79
2022-11-24T15:20:37.559Z,8.75
2022-11-24T15:23:13.889Z,8.76
2022-11-24T15:26:00.215Z,8.67
2022-11-24T15:28:27.981Z,8.55
2022-11-24T15:31:10.498Z,8.74
2022-11-24T15:33:39.067Z,8.71
2022-11-24T15:36:06.972Z,8.56
2022-11-24T15:38:34.159Z,8.78
2022-11-24T15:41:02.231Z,8.71
2022-11-24T15:43:35.070Z,8.44
2022-11-24T15:46:03.848Z,8.57
2022-11-24T15:48:31.665Z,8.68
2022-11-24T15:51:02.136Z,8.67
2022-11-24T15:53:40.118Z,8.61
2022-11-24T15:56:12.814Z,8.66
2022-11-24T15:58:40.236Z,8.64
2022-11-24T16:01:07.490Z,8.69
2022-11-24T16:03:50.423Z,8.68
2022-11-24T16:06:24.780Z,8.74
2022-11-24T16:08:54.011Z,8.74
2022-11-24T16:11:21.897Z,8.81
2022-11-24T16:13:53.018Z,8.67
2022-11-24T16:16:22.370Z,8.70
2022-11-24T16:18:49.944Z,8.72
2022-11-24T16:21:17.763Z,8.67
2022-11-24T16:23:45.797Z,8.64
2022-11-24T16:26:13.355Z,8.53
2022-11-24T16:28:40.963Z,8.63
2022-11-24T16:31:08.899Z,8.75
2022-11-24T16:33:38.754Z,8.75
2022-11-24T16:36:06.612Z,8.55
2022-11-24T16:38:35.667Z,8.64
2022-11-24T16:41:02.915Z,8.68
2022-11-24T16:43:30.694Z,8.51
2022-11-24T16:46:19.821Z,8.71
2022-11-24T16:48:52.026Z,8.42
2022-11-24T16:51:22.713Z,8.50
2022-11-24T16:54:01.322Z,8.60
2022-11-24T16:56:29.242Z,8.55
2022-11-24T16:58:57.009Z,8.48
2022-11-24T17:01:26.289Z,8.62
2022-11-24T17:03:53.655Z,8.58
2022-11-24T17:06:21.343Z,8.50
2022-11-24T17:08:49.039Z,8.60
2022-11-24T17:11:22.238Z,8.68
2022-11-24T17:13:50.462Z,8.47
2022-11-24T17:16:20.780Z,8.68
2022-11-24T17:18:48.558Z,8.58
2022-11-24T17:21:21.454Z,8.43
2022-11-24T17:23:52.715Z,8.58
2022-11-24T17:26:20.623Z,8.66
2022-11-24T17:28:48.177Z,8.44
2022-11-24T17:31:23.492Z,8.55
2022-11-24T17:33:53.363Z,8.55
2022-11-24T17:36:21.231Z,8.50
2022-11-24T17:38:49.859Z,8.56
2022-11-24T17:41:18.597Z,8.60
2022-11-24T17:43:50.690Z,8.61
2022-11-24T17:46:18.786Z,8.61
2022-11-24T17:48:47.168Z,8.59
2022-11-24T17:51:17.105Z,8.56
2022-11-24T17:53:46.993Z,8.51
2022-11-24T17:56:16.773Z,8.47
2022-11-24T17:58:44.436Z,8.42
2022-11-24T18:01:13.039Z,8.52
2022-11-24T18:03:41.560Z,8.43
2022-11-24T18:06:10.545Z,8.45
2022-11-24T18:08:39.986Z,8.33
2022-11-24T18:11:09.622Z,8.35
2022-11-24T18:16:28.160Z,8.41
2022-11-24T18:19:08.318Z,8.40
2022-11-24T18:21:41.471Z,8.39
2022-11-24T18:24:10.581Z,8.17
2022-11-24T18:26:38.990Z,8.31
2022-11-24T18:29:06.382Z,8.06
2022-11-24T18:31:35.832Z,8.28
2022-11-24T18:34:05.710Z,8.24
2022-11-24T18:36:34.698Z,8.26
2022-11-24T18:39:07.285Z,8.05
2022-11-24T18:41:34.557Z,8.27
2022-11-24T18:44:03.235Z,8.44
2022-11-24T18:46:30.575Z,8.44
2022-11-24T18:48:57.901Z,8.54
2022-11-24T18:51:25.383Z,8.57
2022-11-24T18:54:02.277Z,8.50
2022-11-24T18:56:29.649Z,8.54
2022-11-24T18:58:57.600Z,8.59
2022-11-24T19:01:27.867Z,8.53
2022-11-24T19:04:02.068Z,8.52
2022-11-24T19:06:33.566Z,8.56
2022-11-24T19:09:05.334Z,8.55
2022-11-24T19:11:37.541Z,8.56
2022-11-24T19:14:07.534Z,8.51
2022-11-24T19:16:35.947Z,8.46
2022-11-24T19:19:04.198Z,8.52
2022-11-24T19:21:37.432Z,8.36
2022-11-24T19:24:06.131Z,8.34
2022-11-24T19:26:37.604Z,8.41
2022-11-24T19:29:06.642Z,8.39
2022-11-24T19:31:34.653Z,8.32
2022-11-24T19:34:03.173Z,8.38
2022-11-24T19:36:30.868Z,8.46
2022-11-24T19:38:59.783Z,8.36
2022-11-24T19:41:29.990Z,8.47
2022-11-24T19:43:58.857Z,8.44
2022-11-24T19:46:29.737Z,8.49
2022-11-24T19:49:01.091Z,8.41
2022-11-24T19:51:37.013Z,8.45
2022-11-24T19:54:07.013Z,8.48
2022-11-24T19:56:36.801Z,8.41
2022-11-24T19:59:06.248Z,8.43
2022-11-24T20:01:37.574Z,8.22
2022-11-24T20:04:07.613Z,8.39
2022-11-24T20:06:38.381Z,8.34
2022-11-24T20:09:08.733Z,8.36
2022-11-24T20:11:40.286Z,8.37
2022-11-24T20:14:11.771Z,8.30
2022-11-24T20:16:39.626Z,8.37
2022-11-24T20:19:11.529Z,8.28
2022-11-24T20:21:40.096Z,8.30
2022-11-24T20:24:20.893Z,8.44
2022-11-24T20:26:54.764Z,8.44
2022-11-24T20:29:22.789Z,8.48
2022-11-24T20:31:52.693Z,8.56
2022-11-24T20:34:21.886Z,8.35
2022-11-24T20:36:49.800Z,8.62
2022-11-24T20:39:20.749Z,8.65
2022-11-24T20:41:48.635Z,8.67
2022-11-24T20:44:18.336Z,8.58
2022-11-24T20:46:46.937Z,8.51
2022-11-24T20:49:17.541Z,8.46
2022-11-24T20:51:47.107Z,8.42
2022-11-24T20:54:19.107Z,8.48
2022-11-24T20:56:47.221Z,8.50
2022-11-24T20:59:21.691Z,8.32
2022-11-24T21:01:50.799Z,8.42
2022-11-24T21:04:21.912Z,8.48
2022-11-24T21:06:49.526Z,8.49
2022-11-24T21:09:17.391Z,8.37
2022-11-24T21:11:45.798Z,8.43
2022-11-24T21:14:13.127Z,8.57
2022-11-24T21:16:42.317Z,8.55
2022-11-24T21:19:12.633Z,8.53
2022-11-24T21:21:42.935Z,8.70
2022-11-24T21:24:15.795Z,8.64
2022-11-24T21:26:44.187Z,8.63
2022-11-24T21:29:13.241Z,8.55
2022-11-24T21:31:41.291Z,8.55
2022-11-24T21:34:09.104Z,8.37
2022-11-24T21:36:40.168Z,8.43
2022-11-24T21:39:07.716Z,8.51
2022-11-24T21:41:35.218Z,8.58
2022-11-24T21:44:02.543Z,8.63
2022-11-24T21:46:38.951Z,8.70
2022-11-24T21:49:08.413Z,8.69
2022-11-24T21:51:36.245Z,8.81
2022-11-24T21:54:03.408Z,8.85
2022-11-24T21:56:30.722Z,8.83
2022-11-24T21:58:58.774Z,8.71
2022-11-24T22:01:28.281Z,8.71
2022-11-24T22:03:55.997Z,8.78
2022-11-24T22:06:23.646Z,8.80
2022-11-24T22:08:51.084Z,8.77
2022-11-24T22:11:24.203Z,8.67
2022-11-24T22:13:52.527Z,8.66
2022-11-24T22:16:24.379Z,8.67
2022-11-24T22:18:52.434Z,8.57
2022-11-24T22:21:30.152Z,8.55
2022-11-24T22:23:57.834Z,8.52
2022-11-24T22:26:26.367Z,8.46
2022-11-24T22:28:55.206Z,8.56
2022-11-24T22:31:27.732Z,8.55
2022-11-24T22:33:56.414Z,8.53
2022-11-24T22:36:26.355Z,8.48
2022-11-24T22:39:04.840Z,8.49
2022-11-24T22:41:34.738Z,8.52
2022-11-24T22:44:05.196Z,8.56
2022-11-24T22:46:32.653Z,8.60
2022-11-24T22:49:01.772Z,8.72
2022-11-24T22:51:31.563Z,8.68
2022-11-24T22:54:01.731Z,8.72
2022-11-24T22:56:29.865Z,8.74
2022-11-24T22:58:58.379Z,8.67
2022-11-24T23:01:27.145Z,8.83
2022-11-24T23:03:54.961Z,8.76
2022-11-24T23:06:25.153Z,8.84
2022-11-24T23:08:53.384Z,8.83
2022-11-24T23:11:29.045Z,8.79
2022-11-24T23:13:58.250Z,8.76
2022-11-24T23:16:25.604Z,8.77
2022-11-24T23:18:54.202Z,8.82
2022-11-24T23:21:27.052Z,8.82
2022-11-24T23:23:55.168Z,8.79
2022-11-24T23:26:25.572Z,8.81
2022-11-24T23:28:53.016Z,8.85
2022-11-24T23:31:22.395Z,8.88
2022-11-24T23:33:49.924Z,8.80
2022-11-24T23:36:19.516Z,8.73
2022-11-24T23:38:47.838Z,8.78
2022-11-24T23:41:18.134Z,8.74
2022-11-24T23:43:45.805Z,8.73
2022-11-24T23:46:20.885Z,8.75
2022-11-24T23:48:49.409Z,8.67
2022-11-24T23:51:22.249Z,8.65
2022-11-24T23:53:50.620Z,8.67
2022-11-24T23:56:20.662Z,8.68
2022-11-24T23:58:49.042Z,8.62
